createdAt,value
2023-04-25T00:00:44.444Z,1646.00
2023-04-25T00:01:44.622Z,1649.00
2023-04-25T00:02:44.530Z,1640.00
2023-04-25T00:03:44.648Z,1637.00
2023-04-25T00:04:44.783Z,1625.00
2023-04-25T00:05:44.577Z,1629.00
2023-04-25T00:06:44.503Z,1634.00
2023-04-25T00:07:44.532Z,1631.00
2023-04-25T00:08:44.416Z,1633.00
2023-04-25T00:09:44.414Z,1623.00
2023-04-25T00:10:44.439Z,1627.00
2023-04-25T00:11:44.352Z,1626.00
2023-04-25T00:12:44.374Z,1626.00
2023-04-25T00:13:44.385Z,1622.00
2023-04-25T00:14:44.351Z,1627.00
2023-04-25T00:15:44.385Z,1617.00
2023-04-25T00:16:44.341Z,1618.00
2023-04-25T00:17:44.387Z,1620.00
2023-04-25T00:18:44.322Z,1617.00
2023-04-25T00:19:44.387Z,1608.00
2023-04-25T00:20:44.674Z,1611.00
2023-04-25T00:21:44.343Z,1609.00
2023-04-25T00:22:44.293Z,1613.00
2023-04-25T00:23:44.304Z,1601.00
2023-04-25T00:24:44.270Z,1596.00
2023-04-25T00:25:44.301Z,1600.00
2023-04-25T00:26:44.268Z,1611.00
2023-04-25T00:27:44.281Z,1599.00
2023-04-25T00:28:44.261Z,1609.00
2023-04-25T00:29:44.273Z,1589.00
2023-04-25T00:30:44.246Z,1602.00
2023-04-25T00:31:44.234Z,1594.00
2023-04-25T00:32:44.281Z,1593.00
2023-04-25T00:33:44.207Z,1595.00
2023-04-25T00:34:44.199Z,1598.00
2023-04-25T00:35:44.179Z,1596.00
2023-04-25T00:36:44.187Z,1601.00
2023-04-25T00:37:44.232Z,1592.00
2023-04-25T00:38:44.177Z,1584.00
2023-04-25T00:39:44.209Z,1586.00
2023-04-25T00:40:44.158Z,1586.00
2023-04-25T00:41:44.148Z,1583.00
2023-04-25T00:42:44.154Z,1585.00
2023-04-25T00:43:44.123Z,1585.00
2023-04-25T00:44:44.123Z,1585.00
2023-04-25T00:45:44.164Z,1579.00
2023-04-25T00:46:44.133Z,1580.00
2023-04-25T00:47:44.206Z,1578.00
2023-04-25T00:48:44.110Z,1580.00
2023-04-25T00:49:44.126Z,1583.00
2023-04-25T00:50:44.210Z,1580.00
2023-04-25T00:51:44.077Z,1573.00
2023-04-25T00:52:44.072Z,1572.00
2023-04-25T00:53:44.728Z,1570.00
2023-04-25T00:54:44.089Z,1564.00
2023-04-25T00:55:44.043Z,1566.00
2023-04-25T00:56:44.050Z,1574.00
2023-04-25T00:57:44.030Z,1565.00
2023-04-25T00:58:44.142Z,1561.00
2023-04-25T00:59:44.005Z,1573.00
2023-04-25T01:00:44.096Z,1555.00
2023-04-25T01:01:45.153Z,1566.00
2023-04-25T01:02:44.290Z,1563.00
2023-04-25T01:03:44.164Z,1559.00
2023-04-25T01:04:43.993Z,1557.00
2023-04-25T01:05:44.013Z,1544.00
2023-04-25T01:06:43.982Z,1556.00
2023-04-25T01:07:43.952Z,1555.00
2023-04-25T01:08:43.951Z,1559.00
2023-04-25T01:09:44.198Z,1551.00
2023-04-25T01:10:43.955Z,1549.00
2023-04-25T01:11:43.919Z,1555.00
2023-04-25T01:12:43.960Z,1555.00
2023-04-25T01:13:43.922Z,1545.00
2023-04-25T01:14:43.953Z,1548.00
2023-04-25T01:15:43.908Z,1553.00
2023-04-25T01:16:43.963Z,1545.00
2023-04-25T01:17:43.979Z,1542.00
2023-04-25T01:18:43.929Z,1543.00
2023-04-25T01:19:45.669Z,1537.00
2023-04-25T01:20:43.951Z,1539.00
2023-04-25T01:21:43.967Z,1548.00
2023-04-25T01:22:44.022Z,1533.00
2023-04-25T01:23:44.007Z,1532.00
2023-04-25T01:24:44.013Z,1543.00
2023-04-25T01:25:43.978Z,1529.00
2023-04-25T01:26:44.010Z,1533.00
2023-04-25T01:27:44.049Z,1529.00
2023-04-25T01:28:44.040Z,1527.00
2023-04-25T01:29:44.028Z,1524.00
2023-04-25T01:30:44.119Z,1531.00
2023-04-25T01:31:44.119Z,1518.00
2023-04-25T01:32:44.172Z,1519.00
2023-04-25T01:33:44.142Z,1522.00
2023-04-25T01:34:44.142Z,1519.00
2023-04-25T01:35:44.268Z,1518.00
2023-04-25T01:36:44.172Z,1523.00
2023-04-25T01:37:44.223Z,1515.00
2023-04-25T01:38:44.213Z,1517.00
2023-04-25T01:39:44.244Z,1520.00
2023-04-25T01:40:44.269Z,1502.00
2023-04-25T01:41:44.284Z,1507.00
2023-04-25T01:42:44.290Z,1497.00
2023-04-25T01:43:44.311Z,1506.00
2023-04-25T01:44:44.324Z,1511.00
2023-04-25T01:45:44.378Z,1506.00
2023-04-25T01:46:44.380Z,1494.00
2023-04-25T01:47:44.426Z,1497.00
2023-04-25T01:48:44.397Z,1497.00
2023-04-25T01:49:44.417Z,1500.00
2023-04-25T01:50:44.422Z,1498.00
2023-04-25T01:51:44.466Z,1487.00
2023-04-25T01:52:44.435Z,1495.00
2023-04-25T01:53:44.623Z,1496.00
2023-04-25T01:54:44.463Z,1489.00
2023-04-25T01:55:45.210Z,1485.00
2023-04-25T01:56:44.570Z,1490.00
2023-04-25T01:57:44.529Z,1479.00
2023-04-25T01:58:44.549Z,1478.00
2023-04-25T01:59:44.566Z,1484.00
2023-04-25T02:00:44.573Z,1480.00
2023-04-25T02:01:44.646Z,1482.00
2023-04-25T02:02:44.758Z,1474.00
2023-04-25T02:03:44.710Z,1478.00
2023-04-25T02:04:44.848Z,1474.00
2023-04-25T02:05:44.593Z,1469.00
2023-04-25T02:06:44.629Z,1465.00
2023-04-25T02:07:44.666Z,1471.00
2023-04-25T02:08:44.641Z,1468.00
2023-04-25T02:09:44.672Z,1465.00
2023-04-25T02:10:44.665Z,1465.00
2023-04-25T02:11:44.696Z,1467.00
2023-04-25T02:12:44.691Z,1465.00
2023-04-25T02:13:44.706Z,1466.00
2023-04-25T02:14:44.728Z,1454.00
2023-04-25T02:15:44.751Z,1458.00
2023-04-25T02:16:45.251Z,1454.00
2023-04-25T02:17:44.839Z,1453.00
2023-04-25T02:18:44.772Z,1455.00
2023-04-25T02:19:44.780Z,1461.00
2023-04-25T02:20:44.796Z,1446.00
2023-04-25T02:21:44.828Z,1446.00
2023-04-25T02:22:44.825Z,1449.00
2023-04-25T02:23:44.838Z,1456.00
2023-04-25T02:24:44.818Z,1446.00
2023-04-25T02:25:44.828Z,1439.00
2023-04-25T02:26:44.853Z,1446.00
2023-04-25T02:27:44.884Z,1434.00
2023-04-25T02:28:44.899Z,1439.00
2023-04-25T02:29:44.856Z,1435.00
2023-04-25T02:30:44.857Z,1433.00
2023-04-25T02:31:44.956Z,1439.00
2023-04-25T02:32:44.954Z,1442.00
2023-04-25T02:33:44.929Z,1436.00
2023-04-25T02:34:44.879Z,1438.00
2023-04-25T02:35:44.882Z,1435.00
2023-04-25T02:36:44.888Z,1428.00
2023-04-25T02:37:44.907Z,1428.00
2023-04-25T02:38:44.925Z,1430.00
2023-04-25T02:39:44.924Z,1432.00
2023-04-25T02:40:44.915Z,1422.00
2023-04-25T02:41:44.921Z,1426.00
2023-04-25T02:42:44.928Z,1426.00
2023-04-25T02:43:44.936Z,1423.00
2023-04-25T02:44:44.970Z,1423.00
2023-04-25T02:45:44.956Z,1430.00
2023-04-25T02:46:45.013Z,1425.00
2023-04-25T02:47:44.976Z,1418.00
2023-04-25T02:48:44.968Z,1418.00
2023-04-25T02:49:44.972Z,1414.00
2023-04-25T02:50:44.947Z,1418.00
2023-04-25T02:51:44.970Z,1422.00
2023-04-25T02:52:44.984Z,1411.00
2023-04-25T02:53:44.996Z,1419.00
2023-04-25T02:54:45.005Z,1408.00
2023-04-25T02:55:44.982Z,1403.00
2023-04-25T02:56:45.052Z,1411.00
2023-04-25T02:57:45.025Z,1396.00
2023-04-25T02:58:45.054Z,1402.00
2023-04-25T02:59:45.253Z,1410.00
2023-04-25T03:00:45.117Z,1391.00
2023-04-25T03:01:45.123Z,1402.00
2023-04-25T03:02:45.154Z,1395.00
2023-04-25T03:03:45.202Z,1394.00
2023-04-25T03:04:45.215Z,1396.00
2023-04-25T03:05:45.230Z,1395.00
2023-04-25T03:06:45.205Z,1385.00
2023-04-25T03:07:45.195Z,1387.00
2023-04-25T03:08:45.226Z,1396.00
2023-04-25T03:09:45.269Z,1385.00
2023-04-25T03:10:45.266Z,1389.00
2023-04-25T03:11:45.272Z,1385.00
2023-04-25T03:12:45.298Z,1383.00
2023-04-25T03:13:45.349Z,1384.00
2023-04-25T03:14:45.340Z,1376.00
2023-04-25T03:15:45.305Z,1376.00
2023-04-25T03:16:45.429Z,1379.00
2023-04-25T03:17:45.355Z,1368.00
2023-04-25T03:18:45.313Z,1376.00
2023-04-25T03:19:45.340Z,1378.00
2023-04-25T03:20:45.351Z,1376.00
2023-04-25T03:21:45.379Z,1372.00
2023-04-25T03:22:45.337Z,1366.00
2023-04-25T03:23:45.368Z,1366.00
2023-04-25T03:24:45.365Z,1370.00
2023-04-25T03:25:45.390Z,1367.00
2023-04-25T03:26:45.403Z,1359.00
2023-04-25T03:27:45.427Z,1353.00
2023-04-25T03:28:45.446Z,1361.00
2023-04-25T03:29:45.434Z,1353.00
2023-04-25T03:30:45.540Z,1350.00
2023-04-25T03:31:45.549Z,1356.00
2023-04-25T03:32:45.498Z,1341.00
2023-04-25T03:33:45.506Z,1338.00
2023-04-25T03:34:45.505Z,1336.00
2023-04-25T03:35:45.526Z,1334.00
2023-04-25T03:36:45.546Z,1335.00
2023-04-25T03:37:45.556Z,1338.00
2023-04-25T03:38:45.549Z,1334.00
2023-04-25T03:39:45.601Z,1336.00
2023-04-25T03:40:45.626Z,1337.00
2023-04-25T03:41:45.632Z,1320.00
2023-04-25T03:42:45.641Z,1332.00
2023-04-25T03:43:45.629Z,1330.00
2023-04-25T03:44:45.646Z,1329.00
2023-04-25T03:45:45.698Z,1331.00
2023-04-25T03:46:45.667Z,1318.00
2023-04-25T03:47:45.699Z,1324.00
2023-04-25T03:48:45.679Z,1312.00
2023-04-25T03:49:45.707Z,1308.00
2023-04-25T03:50:45.711Z,1318.00
2023-04-25T03:51:45.751Z,1312.00
2023-04-25T03:52:45.752Z,1316.00
2023-04-25T03:53:45.752Z,1311.00
2023-04-25T03:54:45.785Z,1314.00
2023-04-25T03:55:45.775Z,1310.00
2023-04-25T03:56:45.827Z,1312.00
2023-04-25T03:57:45.796Z,1306.00
2023-04-25T03:58:45.799Z,1310.00
2023-04-25T03:59:45.818Z,1308.00
2023-04-25T04:00:45.854Z,1310.00
2023-04-25T04:01:45.865Z,1310.00
2023-04-25T04:02:46.020Z,1303.00
2023-04-25T04:03:46.098Z,1298.00
2023-04-25T04:04:46.085Z,1305.00
2023-04-25T04:05:45.957Z,1303.00
2023-04-25T04:06:45.914Z,1305.00
2023-04-25T04:07:45.928Z,1298.00
2023-04-25T04:08:45.886Z,1289.00
2023-04-25T04:09:45.921Z,1292.00
2023-04-25T04:10:45.922Z,1295.00
2023-04-25T04:11:45.950Z,1288.00
2023-04-25T04:12:45.951Z,1298.00
2023-04-25T04:13:45.986Z,1288.00
2023-04-25T04:14:46.018Z,1286.00
2023-04-25T04:15:46.096Z,1293.00
2023-04-25T04:16:46.036Z,1288.00
2023-04-25T04:17:46.153Z,1292.00
2023-04-25T04:18:46.082Z,1293.00
2023-04-25T04:19:46.103Z,1281.00
2023-04-25T04:20:46.110Z,1285.00
2023-04-25T04:21:46.150Z,1284.00
2023-04-25T04:22:46.141Z,1281.00
2023-04-25T04:23:46.168Z,1283.00
2023-04-25T04:24:46.204Z,1277.00
2023-04-25T04:25:46.198Z,1278.00
2023-04-25T04:26:46.238Z,1272.00
2023-04-25T04:27:46.756Z,1279.00
2023-04-25T04:28:46.254Z,1273.00
2023-04-25T04:29:46.295Z,1277.00
2023-04-25T04:30:46.294Z,1272.00
2023-04-25T04:31:46.297Z,1272.00
2023-04-25T04:32:47.439Z,1282.00
2023-04-25T04:33:46.469Z,1282.00
2023-04-25T04:34:46.465Z,1276.00
2023-04-25T04:35:46.502Z,1280.00
2023-04-25T04:36:46.541Z,1274.00
2023-04-25T04:37:46.580Z,1280.00
2023-04-25T04:38:46.566Z,1283.00
2023-04-25T04:39:46.622Z,1281.00
2023-04-25T04:40:46.578Z,1271.00
2023-04-25T04:41:46.657Z,1276.00
2023-04-25T04:42:46.622Z,1273.00
2023-04-25T04:43:46.638Z,1263.00
2023-04-25T04:44:46.710Z,1267.00
2023-04-25T04:45:46.659Z,1263.00
2023-04-25T04:46:46.707Z,1266.00
2023-04-25T04:47:46.771Z,1270.00
2023-04-25T04:48:46.724Z,1274.00
2023-04-25T04:49:46.773Z,1266.00
2023-04-25T04:50:46.823Z,1268.00
2023-04-25T04:51:46.809Z,1280.00
2023-04-25T04:52:46.798Z,1273.00
2023-04-25T04:53:46.826Z,1265.00
2023-04-25T04:54:46.861Z,1262.00
2023-04-25T04:55:46.871Z,1245.00
2023-04-25T04:56:46.880Z,1247.00
2023-04-25T04:57:46.906Z,1221.00
2023-04-25T04:58:46.917Z,1224.00
2023-04-25T04:59:46.928Z,1196.00
2023-04-25T05:00:46.944Z,1181.00
2023-04-25T05:01:46.961Z,1183.00
2023-04-25T05:02:47.117Z,1169.00
2023-04-25T05:03:47.131Z,1155.00
2023-04-25T05:04:47.065Z,1152.00
2023-04-25T05:05:47.003Z,1146.00
2023-04-25T05:06:48.961Z,1138.00
2023-04-25T05:07:47.034Z,1134.00
2023-04-25T05:08:47.053Z,1138.00
2023-04-25T05:09:47.069Z,1125.00
2023-04-25T05:10:47.098Z,1118.00
2023-04-25T05:11:47.111Z,1108.00
2023-04-25T05:12:47.129Z,1108.00
2023-04-25T05:13:47.146Z,1092.00
2023-04-25T05:14:47.193Z,1086.00
2023-04-25T05:15:47.184Z,1079.00
2023-04-25T05:16:47.228Z,1071.00
2023-04-25T05:17:47.295Z,1046.00
2023-04-25T05:18:47.259Z,1028.00
2023-04-25T05:19:47.249Z,1010.00
2023-04-25T05:20:47.289Z,998.00
2023-04-25T05:21:47.283Z,990.00
2023-04-25T05:22:47.323Z,970.00
2023-04-25T05:23:47.317Z,967.00
2023-04-25T05:24:47.380Z,943.00
2023-04-25T05:25:47.423Z,953.00
2023-04-25T05:26:48.310Z,956.00
2023-04-25T05:27:47.471Z,979.00
2023-04-25T05:28:47.472Z,1008.00
2023-04-25T05:29:47.446Z,1013.00
2023-04-25T05:30:47.763Z,1016.00
2023-04-25T05:31:47.509Z,1017.00
2023-04-25T05:32:48.303Z,1061.00
2023-04-25T05:33:54.257Z,1223.00
2023-04-25T05:34:47.580Z,1223.00
2023-04-25T05:35:47.549Z,1226.00
2023-04-25T05:36:47.543Z,1133.00
2023-04-25T05:37:47.754Z,1081.00
2023-04-25T05:38:47.514Z,1044.00
2023-04-25T05:39:47.534Z,1081.00
2023-04-25T05:40:48.265Z,1104.00
2023-04-25T05:41:47.512Z,1096.00
2023-04-25T05:42:47.794Z,1092.00
2023-04-25T05:43:47.524Z,1127.00
2023-04-25T05:44:47.498Z,1124.00
2023-04-25T05:45:50.388Z,1164.00
2023-04-25T05:46:47.437Z,1165.00
2023-04-25T05:47:47.769Z,1183.00
2023-04-25T05:48:47.437Z,1226.00
2023-04-25T05:49:47.419Z,1257.00
2023-04-25T05:50:47.775Z,1239.00
2023-04-25T05:51:47.414Z,1157.00
2023-04-25T05:52:47.444Z,1145.00
2023-04-25T05:53:47.586Z,1136.00
2023-04-25T05:54:47.387Z,1119.00
2023-04-25T05:55:47.410Z,1130.00
2023-04-25T05:56:47.373Z,1138.00
2023-04-25T05:57:47.729Z,1153.00
2023-04-25T05:58:47.448Z,1168.00
2023-04-25T05:59:47.378Z,1219.00
2023-04-25T06:00:47.402Z,1245.00
2023-04-25T06:01:47.541Z,1286.00
2023-04-25T06:02:47.447Z,1311.00
2023-04-25T06:03:47.629Z,1340.00
2023-04-25T06:04:47.478Z,1353.00
2023-04-25T06:05:47.377Z,1367.00
2023-04-25T06:06:47.328Z,1350.00
2023-04-25T06:07:47.308Z,1382.00
2023-04-25T06:08:47.352Z,1341.00
2023-04-25T06:09:47.306Z,1412.00
2023-04-25T06:10:47.287Z,1533.00
2023-04-25T06:11:47.315Z,1509.00
2023-04-25T06:12:47.303Z,1482.00
2023-04-25T06:13:47.289Z,1518.00
2023-04-25T06:14:47.272Z,1517.00
2023-04-25T06:15:47.303Z,1461.00
2023-04-25T06:16:47.749Z,1513.00
2023-04-25T06:17:47.285Z,1515.00
2023-04-25T06:18:47.222Z,1504.00
2023-04-25T06:19:47.216Z,1460.00
2023-04-25T06:20:47.225Z,1472.00
2023-04-25T06:21:47.252Z,1461.00
2023-04-25T06:22:47.224Z,1475.00
2023-04-25T06:23:47.210Z,1455.00
2023-04-25T06:24:47.180Z,1497.00
2023-04-25T06:25:47.271Z,1502.00
2023-04-25T06:26:47.283Z,1509.00
2023-04-25T06:27:47.160Z,1480.00
2023-04-25T06:28:47.174Z,1485.00
2023-04-25T06:29:47.168Z,1454.00
2023-04-25T06:30:47.162Z,1446.00
2023-04-25T06:31:47.180Z,1244.00
2023-04-25T06:32:47.187Z,1233.00
2023-04-25T06:33:47.121Z,1150.00
2023-04-25T06:34:47.109Z,1144.00
2023-04-25T06:35:47.111Z,1143.00
2023-04-25T06:36:47.104Z,1065.00
2023-04-25T06:37:47.319Z,1095.00
2023-04-25T06:40:06.512Z,500.00
2023-04-25T06:41:06.291Z,500.00
2023-04-25T06:42:06.304Z,500.00
2023-04-25T06:43:06.479Z,500.00
2023-04-25T06:44:06.256Z,500.00
2023-04-25T06:45:06.247Z,500.00
2023-04-25T06:46:06.277Z,504.00
2023-04-25T06:47:06.355Z,518.00
2023-04-25T06:48:06.342Z,538.00
2023-04-25T06:49:06.230Z,553.00
2023-04-25T06:50:06.260Z,567.00
2023-04-25T06:51:06.240Z,575.00
2023-04-25T06:52:06.248Z,575.00
2023-04-25T06:53:06.198Z,576.00
2023-04-25T06:54:06.172Z,576.00
2023-04-25T06:55:06.208Z,573.00
2023-04-25T06:56:06.513Z,571.00
2023-04-25T06:57:06.187Z,565.00
2023-04-25T06:58:06.194Z,566.00
2023-04-25T06:59:06.146Z,584.00
2023-04-25T07:00:08.981Z,584.00
2023-04-25T07:01:06.238Z,585.00
2023-04-25T07:02:06.115Z,587.00
2023-04-25T07:03:06.310Z,589.00
2023-04-25T07:04:06.336Z,581.00
2023-04-25T07:05:06.190Z,585.00
2023-04-25T07:06:06.117Z,591.00
2023-04-25T07:07:06.246Z,593.00
2023-04-25T07:08:06.165Z,598.00
2023-04-25T07:09:06.096Z,604.00
2023-04-25T07:10:06.090Z,613.00
2023-04-25T07:11:06.082Z,610.00
2023-04-25T07:12:06.068Z,622.00
2023-04-25T07:13:06.989Z,631.00
2023-04-25T07:14:06.070Z,632.00
2023-04-25T07:15:06.110Z,625.00
2023-04-25T07:16:06.577Z,631.00
2023-04-25T07:17:06.078Z,641.00
2023-04-25T07:18:08.024Z,646.00
2023-04-25T07:19:06.040Z,653.00
2023-04-25T07:20:06.018Z,643.00
2023-04-25T07:21:06.045Z,649.00
2023-04-25T07:22:06.024Z,651.00
2023-04-25T07:23:06.022Z,667.00
2023-04-25T07:24:05.995Z,672.00
2023-04-25T07:25:06.021Z,679.00
2023-04-25T07:26:06.050Z,670.00
2023-04-25T07:27:05.980Z,680.00
2023-04-25T07:28:05.989Z,661.00
2023-04-25T07:29:05.972Z,666.00
2023-04-25T07:30:06.020Z,658.00
2023-04-25T07:31:06.028Z,643.00
2023-04-25T07:32:05.988Z,656.00
2023-04-25T07:33:06.536Z,683.00
2023-04-25T07:34:05.989Z,803.00
2023-04-25T07:35:05.999Z,791.00
2023-04-25T07:36:06.519Z,762.00
2023-04-25T07:37:06.495Z,898.00
2023-04-25T07:38:05.993Z,895.00
2023-04-25T07:39:05.946Z,889.00
2023-04-25T07:40:05.891Z,812.00
2023-04-25T07:41:06.004Z,686.00
2023-04-25T07:42:05.894Z,692.00
2023-04-25T07:43:05.860Z,714.00
2023-04-25T07:44:05.868Z,725.00
2023-04-25T07:45:05.870Z,696.00
2023-04-25T07:46:05.983Z,693.00
2023-04-25T07:47:05.929Z,682.00
2023-04-25T07:48:06.070Z,655.00
2023-04-25T07:49:05.851Z,663.00
2023-04-25T07:50:05.834Z,663.00
2023-04-25T07:51:05.816Z,624.00
2023-04-25T07:52:05.825Z,620.00
2023-04-25T07:53:06.053Z,625.00
2023-04-25T07:54:07.542Z,626.00
2023-04-25T07:55:06.585Z,620.00
2023-04-25T07:56:06.519Z,656.00
2023-04-25T07:57:05.863Z,640.00
2023-04-25T07:58:06.580Z,703.00
2023-04-25T07:59:05.852Z,761.00
2023-04-25T08:00:05.838Z,741.00
2023-04-25T08:01:05.977Z,765.00
2023-04-25T08:02:05.897Z,727.00
2023-04-25T08:03:06.733Z,775.00
2023-04-25T08:04:06.084Z,765.00
2023-04-25T08:05:06.040Z,807.00
2023-04-25T08:06:08.176Z,756.00
2023-04-25T08:07:06.796Z,775.00
2023-04-25T08:08:05.841Z,781.00
2023-04-25T08:09:06.040Z,769.00
2023-04-25T08:10:06.057Z,736.00
2023-04-25T08:11:06.074Z,769.00
2023-04-25T08:12:05.805Z,810.00
2023-04-25T08:13:05.817Z,887.00
2023-04-25T08:14:05.789Z,856.00
2023-04-25T08:15:05.883Z,1267.00
2023-04-25T08:16:06.593Z,1063.00
2023-04-25T08:17:05.915Z,939.00
2023-04-25T08:18:05.811Z,1000.00
2023-04-25T08:19:06.017Z,1108.00
2023-04-25T08:20:05.760Z,1055.00
2023-04-25T08:21:06.047Z,991.00
2023-04-25T08:22:05.739Z,1103.00
2023-04-25T08:23:05.728Z,1238.00
2023-04-25T08:24:05.907Z,1185.00
2023-04-25T08:25:05.696Z,1153.00
2023-04-25T08:26:05.756Z,1175.00
2023-04-25T08:27:05.711Z,1131.00
2023-04-25T08:28:05.720Z,1055.00
2023-04-25T08:29:06.062Z,1019.00
2023-04-25T08:30:05.756Z,1023.00
2023-04-25T08:31:05.731Z,1137.00
2023-04-25T08:32:06.551Z,1209.00
2023-04-25T08:33:05.695Z,1259.00
2023-04-25T08:34:05.685Z,1261.00
2023-04-25T08:35:05.651Z,1229.00
2023-04-25T08:36:05.739Z,1257.00
2023-04-25T08:37:05.653Z,1210.00
2023-04-25T08:38:05.641Z,901.00
2023-04-25T08:39:06.024Z,915.00
2023-04-25T08:40:06.557Z,929.00
2023-04-25T08:41:06.545Z,949.00
2023-04-25T08:42:05.732Z,947.00
2023-04-25T08:43:08.518Z,981.00
2023-04-25T08:44:06.549Z,857.00
2023-04-25T08:46:06.594Z,750.00
2023-04-25T08:47:05.713Z,648.00
2023-04-25T08:48:05.567Z,621.00
2023-04-25T08:49:06.636Z,619.00
2023-04-25T08:50:05.553Z,622.00
2023-04-25T08:51:06.028Z,606.00
2023-04-25T08:52:05.542Z,602.00
2023-04-25T08:53:05.554Z,577.00
2023-04-25T08:54:10.398Z,599.00
2023-04-25T08:55:06.618Z,600.00
2023-04-25T08:56:05.578Z,600.00
2023-04-25T08:57:06.652Z,587.00
2023-04-25T08:58:07.551Z,575.00
2023-04-25T08:59:06.065Z,579.00
2023-04-25T09:00:05.549Z,578.00
2023-04-25T09:01:05.598Z,591.00
2023-04-25T09:02:05.601Z,587.00
2023-04-25T09:03:05.716Z,568.00
2023-04-25T09:04:05.772Z,586.00
2023-04-25T09:05:06.538Z,581.00
2023-04-25T09:06:05.544Z,591.00
2023-04-25T09:07:05.553Z,561.00
2023-04-25T09:08:05.562Z,603.00
2023-04-25T09:09:06.093Z,598.00
2023-04-25T09:10:05.536Z,636.00
2023-04-25T09:11:05.564Z,609.00
2023-04-25T09:12:05.569Z,601.00
2023-04-25T09:13:05.567Z,590.00
2023-04-25T09:14:05.639Z,599.00
2023-04-25T09:15:05.642Z,576.00
2023-04-25T09:16:05.567Z,588.00
2023-04-25T09:17:05.894Z,601.00
2023-04-25T09:18:05.660Z,595.00
2023-04-25T09:19:05.619Z,582.00
2023-04-25T09:20:05.583Z,585.00
2023-04-25T09:21:12.581Z,571.00
2023-04-25T09:22:06.669Z,571.00
2023-04-25T09:23:05.576Z,576.00
2023-04-25T09:24:05.684Z,588.00
2023-04-25T09:25:05.581Z,578.00
2023-04-25T09:26:05.546Z,534.00
2023-04-25T09:27:05.589Z,509.00
2023-04-25T09:28:05.595Z,515.00
2023-04-25T09:29:05.551Z,513.00
2023-04-25T09:30:05.570Z,522.00
2023-04-25T09:31:06.036Z,559.00
2023-04-25T09:32:06.131Z,565.00
2023-04-25T09:33:05.661Z,570.00
2023-04-25T09:34:07.066Z,569.00
2023-04-25T09:35:06.343Z,575.00
2023-04-25T09:36:06.067Z,587.00
2023-04-25T09:37:05.541Z,603.00
2023-04-25T09:38:06.100Z,632.00
2023-04-25T09:39:05.612Z,641.00
2023-04-25T09:40:06.109Z,653.00
2023-04-25T09:41:06.940Z,638.00
2023-04-25T09:42:05.581Z,626.00
2023-04-25T09:43:05.628Z,641.00
2023-04-25T09:44:05.465Z,644.00
2023-04-25T09:45:05.452Z,655.00
2023-04-25T09:46:06.229Z,715.00
2023-04-25T09:47:07.156Z,747.00
2023-04-25T09:48:05.766Z,768.00
2023-04-25T09:49:06.130Z,825.00
2023-04-25T09:50:05.650Z,717.00
2023-04-25T09:51:05.650Z,653.00
2023-04-25T09:52:06.229Z,618.00
2023-04-25T09:53:05.655Z,605.00
2023-04-25T09:54:05.668Z,602.00
2023-04-25T09:55:05.733Z,582.00
2023-04-25T09:56:05.672Z,589.00
2023-04-25T09:57:06.077Z,600.00
2023-04-25T09:58:05.685Z,653.00
2023-04-25T09:59:05.743Z,688.00
2023-04-25T10:00:05.684Z,646.00
2023-04-25T10:01:05.676Z,671.00
2023-04-25T10:02:05.711Z,712.00
2023-04-25T10:03:05.711Z,517.00
2023-04-25T10:04:06.172Z,501.00
2023-04-25T10:05:05.783Z,498.00
2023-04-25T10:06:05.699Z,491.00
2023-04-25T10:07:06.060Z,503.00
2023-04-25T10:08:05.965Z,495.00
2023-04-25T10:09:06.722Z,500.00
2023-04-25T10:10:05.814Z,500.00
2023-04-25T10:11:05.771Z,497.00
2023-04-25T10:12:05.870Z,512.00
2023-04-25T10:13:05.786Z,523.00
2023-04-25T10:14:05.751Z,506.00
2023-04-25T10:15:06.168Z,500.00
2023-04-25T10:16:05.997Z,515.00
2023-04-25T10:17:05.777Z,526.00
2023-04-25T10:18:05.820Z,535.00
2023-04-25T10:19:05.765Z,555.00
2023-04-25T10:20:07.572Z,587.00
2023-04-25T10:21:05.823Z,598.00
2023-04-25T10:22:07.561Z,616.00
2023-04-25T10:23:05.848Z,597.00
2023-04-25T10:24:05.881Z,621.00
2023-04-25T10:25:05.886Z,690.00
2023-04-25T10:26:06.614Z,790.00
2023-04-25T10:27:06.064Z,773.00
2023-04-25T10:28:06.648Z,771.00
2023-04-25T10:29:05.963Z,896.00
2023-04-25T10:30:05.969Z,958.00
2023-04-25T10:31:06.047Z,1010.00
2023-04-25T10:32:06.066Z,1093.00
2023-04-25T10:33:05.983Z,1209.00
2023-04-25T10:34:06.141Z,1172.00
2023-04-25T10:35:06.072Z,890.00
2023-04-25T10:36:06.075Z,858.00
2023-04-25T10:37:06.177Z,863.00
2023-04-25T10:38:06.218Z,987.00
2023-04-25T10:39:06.216Z,991.00
2023-04-25T10:40:06.211Z,983.00
2023-04-25T10:41:06.239Z,944.00
2023-04-25T10:42:06.565Z,1000.00
2023-04-25T10:43:07.077Z,1008.00
2023-04-25T10:44:06.226Z,954.00
2023-04-25T10:45:06.302Z,941.00
2023-04-25T10:46:06.376Z,906.00
2023-04-25T10:47:06.467Z,911.00
2023-04-25T10:48:06.427Z,942.00
2023-04-25T10:49:06.437Z,971.00
2023-04-25T10:50:06.567Z,979.00
2023-04-25T10:51:06.482Z,933.00
2023-04-25T10:52:06.552Z,915.00
2023-04-25T10:53:06.548Z,866.00
2023-04-25T10:54:06.670Z,844.00
2023-04-25T10:55:06.634Z,782.00
2023-04-25T10:56:08.201Z,767.00
2023-04-25T10:57:06.747Z,705.00
2023-04-25T10:58:06.727Z,654.00
2023-04-25T10:59:06.749Z,671.00
2023-04-25T11:00:06.762Z,703.00
2023-04-25T11:01:06.776Z,708.00
2023-04-25T11:02:06.930Z,758.00
2023-04-25T11:03:07.025Z,865.00
2023-04-25T11:04:07.237Z,829.00
2023-04-25T11:05:06.878Z,860.00
2023-04-25T11:06:06.836Z,953.00
2023-04-25T11:07:08.017Z,1092.00
2023-04-25T11:08:08.140Z,1123.00
2023-04-25T11:09:15.484Z,1060.00
2023-04-25T11:10:07.582Z,1060.00
2023-04-25T11:11:07.134Z,840.00
2023-04-25T11:12:07.616Z,800.00
2023-04-25T11:13:07.171Z,772.00
2023-04-25T11:14:07.154Z,719.00
2023-04-25T11:15:07.620Z,665.00
2023-04-25T11:16:12.593Z,645.00
2023-04-25T11:17:08.670Z,646.00
2023-04-25T11:18:08.211Z,666.00
2023-04-25T11:19:07.291Z,716.00
2023-04-25T11:20:07.106Z,842.00
2023-04-25T11:21:07.125Z,1110.00
2023-04-25T11:22:07.137Z,1107.00
2023-04-25T11:23:07.098Z,1084.00
2023-04-25T11:24:07.118Z,1060.00
2023-04-25T11:25:07.206Z,1015.00
2023-04-25T11:26:07.257Z,1003.00
2023-04-25T11:27:08.153Z,957.00
2023-04-25T11:28:08.134Z,993.00
2023-04-25T11:29:08.120Z,993.00
2023-04-25T11:30:07.484Z,992.00
2023-04-25T11:31:07.544Z,1017.00
2023-04-25T11:32:09.183Z,1068.00
2023-04-25T11:33:07.719Z,1063.00
2023-04-25T11:34:07.732Z,1067.00
2023-04-25T11:35:07.768Z,1087.00
2023-04-25T11:36:07.750Z,1054.00
2023-04-25T11:37:07.771Z,1011.00
2023-04-25T11:38:07.840Z,1043.00
2023-04-25T11:39:07.788Z,1060.00
2023-04-25T11:40:07.828Z,1012.00
2023-04-25T11:41:07.840Z,983.00
2023-04-25T11:42:08.897Z,966.00
2023-04-25T11:43:08.816Z,906.00
2023-04-25T11:44:07.811Z,828.00
2023-04-25T11:45:08.191Z,706.00
2023-04-25T11:46:07.831Z,660.00
2023-04-25T11:47:07.804Z,660.00
2023-04-25T11:48:07.840Z,643.00
2023-04-25T11:49:07.790Z,619.00
2023-04-25T11:50:07.766Z,629.00
2023-04-25T11:51:07.812Z,595.00
2023-04-25T11:52:07.778Z,551.00
2023-04-25T11:53:07.753Z,500.00
2023-04-25T11:54:07.780Z,496.00
2023-04-25T11:55:08.984Z,500.00
2023-04-25T11:56:07.924Z,488.00
2023-04-25T11:57:07.956Z,505.00
2023-04-25T11:58:08.165Z,481.00
2023-04-25T11:59:08.261Z,524.00
2023-04-25T12:00:08.110Z,515.00
2023-04-25T12:01:08.172Z,500.00
2023-04-25T12:02:08.198Z,506.00
2023-04-25T12:03:08.342Z,515.00
2023-04-25T12:04:08.336Z,503.00
2023-04-25T12:05:29.383Z,499.00
2023-04-25T12:06:09.413Z,484.00
2023-04-25T12:07:08.281Z,437.00
2023-04-25T12:08:08.274Z,436.00
2023-04-25T12:09:08.249Z,426.00
2023-04-25T12:10:08.633Z,412.00
2023-04-25T12:11:08.356Z,458.00
2023-04-25T12:12:08.220Z,499.00
2023-04-25T12:13:08.229Z,464.00
2023-04-25T12:14:08.269Z,485.00
2023-04-25T12:15:08.324Z,502.00
2023-04-25T12:16:08.476Z,489.00
2023-04-25T12:17:08.385Z,500.00